sensor_id;sensor_type;location;lat;lon;timestamp;temperature;humidity
20384;DHT22;46458;50.966;7.002;2023-07-31T00:01:05;18.10;99.90
20384;DHT22;46458;50.966;7.002;2023-07-31T00:03:36;18.20;99.90
20384;DHT22;46458;50.966;7.002;2023-07-31T00:06:07;18.20;87.90
20384;DHT22;46458;50.966;7.002;2023-07-31T00:08:39;18.20;1.00
20384;DHT22;46458;50.966;7.002;2023-07-31T00:11:08;18.60;1.00
20384;DHT22;46458;50.966;7.002;2023-07-31T00:13:39;18.50;1.00
20384;DHT22;46458;50.966;7.002;2023-07-31T00:16:08;18.50;1.00
20384;DHT22;46458;50.966;7.002;2023-07-31T00:18:37;18.30;1.00
20384;DHT22;46458;50.966;7.002;2023-07-31T00:21:06;18.30;82.60
20384;DHT22;46458;50.966;7.002;2023-07-31T00:23:37;18.40;99.90
20384;DHT22;46458;50.966;7.002;2023-07-31T00:26:06;18.40;99.90
20384;DHT22;46458;50.966;7.002;2023-07-31T00:28:35;18.40;99.90
20384;DHT22;46458;50.966;7.002;2023-07-31T00:31:07;18.40;99.90
20384;DHT22;46458;50.966;7.002;2023-07-31T00:33:36;18.60;99.90
20384;DHT22;46458;50.966;7.002;2023-07-31T00:36:05;18.50;99.90
20384;DHT22;46458;50.966;7.002;2023-07-31T00:38:34;18.40;99.90
20384;DHT22;46458;50.966;7.002;2023-07-31T00:41:02;18.50;12.90
20384;DHT22;46458;50.966;7.002;2023-07-31T00:43:31;18.40;99.90
20384;DHT22;46458;50.966;7.002;2023-07-31T00:46:01;18.50;63.20
20384;DHT22;46458;50.966;7.002;2023-07-31T00:48:32;18.40;99.90
20384;DHT22;46458;50.966;7.002;2023-07-31T00:51:02;18.40;1.00
20384;DHT22;46458;50.966;7.002;2023-07-31T00:53:31;18.30;1.00
20384;DHT22;46458;50.966;7.002;2023-07-31T00:56:00;18.30;1.00
20384;DHT22;46458;50.966;7.002;2023-07-31T00:58:29;18.40;1.00
20384;DHT22;46458;50.966;7.002;2023-07-31T01:00:58;18.90;1.00
20384;DHT22;46458;50.966;7.002;2023-07-31T01:03:32;18.40;1.00
20384;DHT22;46458;50.966;7.002;2023-07-31T01:06:12;17.90;1.00
20384;DHT22;46458;50.966;7.002;2023-07-31T01:08:50;18.50;1.00
20384;DHT22;46458;50.966;7.002;2023-07-31T01:11:28;18.20;1.00
20384;DHT22;46458;50.966;7.002;2023-07-31T01:13:57;17.90;1.00
20384;DHT22;46458;50.966;7.002;2023-07-31T01:16:29;18.40;1.00
20384;DHT22;46458;50.966;7.002;2023-07-31T01:19:00;18.00;1.00
20384;DHT22;46458;50.966;7.002;2023-07-31T01:21:41;18.50;1.00
20384;DHT22;46458;50.966;7.002;2023-07-31T01:24:21;18.50;1.00
20384;DHT22;46458;50.966;7.002;2023-07-31T01:26:57;18.50;1.00
20384;DHT22;46458;50.966;7.002;2023-07-31T01:29:34;18.40;1.00
20384;DHT22;46458;50.966;7.002;2023-07-31T01:32:06;18.50;1.00
20384;DHT22;46458;50.966;7.002;2023-07-31T01:34:37;18.40;1.00
20384;DHT22;46458;50.966;7.002;2023-07-31T01:37:06;18.40;1.00
20384;DHT22;46458;50.966;7.002;2023-07-31T01:39:38;18.50;1.00
20384;DHT22;46458;50.966;7.002;2023-07-31T01:42:09;18.50;1.00
20384;DHT22;46458;50.966;7.002;2023-07-31T01:44:38;18.60;1.00
20384;DHT22;46458;50.966;7.002;2023-07-31T01:47:07;18.70;1.00
20384;DHT22;46458;50.966;7.002;2023-07-31T01:49:39;18.50;1.00
20384;DHT22;46458;50.966;7.002;2023-07-31T01:52:11;18.20;99.90
20384;DHT22;46458;50.966;7.002;2023-07-31T01:54:40;18.60;1.00
20384;DHT22;46458;50.966;7.002;2023-07-31T01:57:11;18.60;1.00
20384;DHT22;46458;50.966;7.002;2023-07-31T01:59:40;18.70;1.00
20384;DHT22;46458;50.966;7.002;2023-07-31T02:02:09;18.70;1.00
20384;DHT22;46458;50.966;7.002;2023-07-31T02:04:37;18.70;1.00
20384;DHT22;46458;50.966;7.002;2023-07-31T02:07:08;18.70;1.00
20384;DHT22;46458;50.966;7.002;2023-07-31T02:09:39;18.60;1.00
20384;DHT22;46458;50.966;7.002;2023-07-31T02:12:10;18.70;1.00
20384;DHT22;46458;50.966;7.002;2023-07-31T02:14:40;18.60;1.00
20384;DHT22;46458;50.966;7.002;2023-07-31T02:17:09;18.60;1.00
20384;DHT22;46458;50.966;7.002;2023-07-31T02:19:39;18.60;1.00
20384;DHT22;46458;50.966;7.002;2023-07-31T02:22:08;18.60;1.00
20384;DHT22;46458;50.966;7.002;2023-07-31T02:24:37;18.60;1.00
20384;DHT22;46458;50.966;7.002;2023-07-31T02:27:06;18.70;1.00
20384;DHT22;46458;50.966;7.002;2023-07-31T02:29:41;18.80;1.00
20384;DHT22;46458;50.966;7.002;2023-07-31T02:32:09;18.70;1.00
20384;DHT22;46458;50.966;7.002;2023-07-31T02:34:38;18.70;1.00
20384;DHT22;46458;50.966;7.002;2023-07-31T02:37:07;18.80;1.00
20384;DHT22;46458;50.966;7.002;2023-07-31T02:39:36;18.70;1.00
20384;DHT22;46458;50.966;7.002;2023-07-31T02:42:05;18.60;1.00
20384;DHT22;46458;50.966;7.002;2023-07-31T02:44:40;18.50;1.00
20384;DHT22;46458;50.966;7.002;2023-07-31T02:47:09;18.60;1.00
20384;DHT22;46458;50.966;7.002;2023-07-31T02:49:37;18.70;1.00
20384;DHT22;46458;50.966;7.002;2023-07-31T02:52:07;18.70;1.00
20384;DHT22;46458;50.966;7.002;2023-07-31T02:54:47;18.80;1.00
20384;DHT22;46458;50.966;7.002;2023-07-31T02:57:16;18.80;1.00
20384;DHT22;46458;50.966;7.002;2023-07-31T02:59:53;18.90;1.00
20384;DHT22;46458;50.966;7.002;2023-07-31T03:02:22;18.80;1.00
20384;DHT22;46458;50.966;7.002;2023-07-31T03:04:51;18.90;1.00
20384;DHT22;46458;50.966;7.002;2023-07-31T03:07:20;18.90;1.00
20384;DHT22;46458;50.966;7.002;2023-07-31T03:09:49;18.80;1.00
20384;DHT22;46458;50.966;7.002;2023-07-31T03:12:20;18.70;1.00
20384;DHT22;46458;50.966;7.002;2023-07-31T03:14:51;18.70;1.00
20384;DHT22;46458;50.966;7.002;2023-07-31T03:17:20;18.80;1.00
20384;DHT22;46458;50.966;7.002;2023-07-31T03:19:49;18.80;1.00
20384;DHT22;46458;50.966;7.002;2023-07-31T03:22:19;18.90;1.00
20384;DHT22;46458;50.966;7.002;2023-07-31T03:24:47;18.70;1.00
20384;DHT22;46458;50.966;7.002;2023-07-31T03:27:19;18.70;1.00
20384;DHT22;46458;50.966;7.002;2023-07-31T03:29:47;18.80;1.00
20384;DHT22;46458;50.966;7.002;2023-07-31T03:32:20;18.90;1.00
20384;DHT22;46458;50.966;7.002;2023-07-31T03:34:49;18.70;1.00
20384;DHT22;46458;50.966;7.002;2023-07-31T03:37:20;18.90;1.00
20384;DHT22;46458;50.966;7.002;2023-07-31T03:39:49;18.80;1.00
20384;DHT22;46458;50.966;7.002;2023-07-31T03:42:18;18.80;1.00
20384;DHT22;46458;50.966;7.002;2023-07-31T03:44:50;18.80;1.00
20384;DHT22;46458;50.966;7.002;2023-07-31T03:47:21;18.80;1.00
20384;DHT22;46458;50.966;7.002;2023-07-31T03:49:51;18.70;1.00
20384;DHT22;46458;50.966;7.002;2023-07-31T03:52:21;18.70;1.00
20384;DHT22;46458;50.966;7.002;2023-07-31T03:54:50;18.60;1.00
20384;DHT22;46458;50.966;7.002;2023-07-31T03:57:21;18.60;1.00
20384;DHT22;46458;50.966;7.002;2023-07-31T03:59:50;18.60;1.00
20384;DHT22;46458;50.966;7.002;2023-07-31T04:02:22;18.50;1.00
20384;DHT22;46458;50.966;7.002;2023-07-31T04:04:50;18.60;1.00
20384;DHT22;46458;50.966;7.002;2023-07-31T04:07:20;18.60;1.00
20384;DHT22;46458;50.966;7.002;2023-07-31T04:09:53;18.70;1.00
20384;DHT22;46458;50.966;7.002;2023-07-31T04:12:22;18.70;1.00
20384;DHT22;46458;50.966;7.002;2023-07-31T04:14:52;18.60;1.00
20384;DHT22;46458;50.966;7.002;2023-07-31T04:17:25;18.70;1.00
20384;DHT22;46458;50.966;7.002;2023-07-31T04:19:54;18.80;1.00
20384;DHT22;46458;50.966;7.002;2023-07-31T04:22:23;18.70;1.00
20384;DHT22;46458;50.966;7.002;2023-07-31T04:24:52;18.70;1.00
20384;DHT22;46458;50.966;7.002;2023-07-31T04:27:21;18.70;1.00
20384;DHT22;46458;50.966;7.002;2023-07-31T04:29:49;18.70;1.00
20384;DHT22;46458;50.966;7.002;2023-07-31T04:32:18;18.70;1.00
20384;DHT22;46458;50.966;7.002;2023-07-31T04:34:50;18.70;1.00
20384;DHT22;46458;50.966;7.002;2023-07-31T04:37:22;18.80;1.00
20384;DHT22;46458;50.966;7.002;2023-07-31T04:39:53;18.80;1.00
20384;DHT22;46458;50.966;7.002;2023-07-31T04:42:22;18.70;1.00
20384;DHT22;46458;50.966;7.002;2023-07-31T04:44:51;18.70;1.00
20384;DHT22;46458;50.966;7.002;2023-07-31T04:47:21;18.70;1.00
20384;DHT22;46458;50.966;7.002;2023-07-31T04:49:53;18.70;1.00
20384;DHT22;46458;50.966;7.002;2023-07-31T04:52:22;18.70;1.00
20384;DHT22;46458;50.966;7.002;2023-07-31T04:54:54;18.70;1.00
20384;DHT22;46458;50.966;7.002;2023-07-31T04:57:22;18.80;1.00
20384;DHT22;46458;50.966;7.002;2023-07-31T04:59:52;18.80;1.00
20384;DHT22;46458;50.966;7.002;2023-07-31T05:02:21;18.80;1.00
20384;DHT22;46458;50.966;7.002;2023-07-31T05:04:53;18.80;1.00
20384;DHT22;46458;50.966;7.002;2023-07-31T05:07:21;18.80;1.00
20384;DHT22;46458;50.966;7.002;2023-07-31T05:09:50;19.00;1.00
20384;DHT22;46458;50.966;7.002;2023-07-31T05:12:19;19.00;99.90
20384;DHT22;46458;50.966;7.002;2023-07-31T05:14:48;19.10;99.90
20384;DHT22;46458;50.966;7.002;2023-07-31T05:17:17;19.00;99.90
20384;DHT22;46458;50.966;7.002;2023-07-31T05:19:45;19.00;99.90
20384;DHT22;46458;50.966;7.002;2023-07-31T05:22:18;19.10;99.90
20384;DHT22;46458;50.966;7.002;2023-07-31T05:24:47;19.10;99.90
20384;DHT22;46458;50.966;7.002;2023-07-31T05:27:15;19.20;99.90
20384;DHT22;46458;50.966;7.002;2023-07-31T05:29:45;19.30;99.90
20384;DHT22;46458;50.966;7.002;2023-07-31T05:32:13;19.30;99.90
20384;DHT22;46458;50.966;7.002;2023-07-31T05:34:42;19.30;99.90
20384;DHT22;46458;50.966;7.002;2023-07-31T05:37:11;19.20;99.90
20384;DHT22;46458;50.966;7.002;2023-07-31T05:39:42;19.20;99.90
20384;DHT22;46458;50.966;7.002;2023-07-31T05:42:16;19.30;99.90
20384;DHT22;46458;50.966;7.002;2023-07-31T05:44:46;19.30;99.90
20384;DHT22;46458;50.966;7.002;2023-07-31T05:47:14;19.30;99.90
20384;DHT22;46458;50.966;7.002;2023-07-31T05:49:44;19.30;99.90
20384;DHT22;46458;50.966;7.002;2023-07-31T05:52:18;19.30;99.90
20384;DHT22;46458;50.966;7.002;2023-07-31T05:54:49;19.30;99.90
20384;DHT22;46458;50.966;7.002;2023-07-31T05:57:19;19.30;99.90
20384;DHT22;46458;50.966;7.002;2023-07-31T05:59:47;19.30;99.90
20384;DHT22;46458;50.966;7.002;2023-07-31T06:02:16;19.20;99.90
20384;DHT22;46458;50.966;7.002;2023-07-31T06:04:48;19.20;99.90
20384;DHT22;46458;50.966;7.002;2023-07-31T06:07:19;19.10;99.90
20384;DHT22;46458;50.966;7.002;2023-07-31T06:09:51;19.00;99.90
20384;DHT22;46458;50.966;7.002;2023-07-31T06:12:20;19.20;99.90
20384;DHT22;46458;50.966;7.002;2023-07-31T06:14:53;19.10;99.90
20384;DHT22;46458;50.966;7.002;2023-07-31T06:17:22;19.30;1.00
20384;DHT22;46458;50.966;7.002;2023-07-31T06:19:52;19.10;1.00
20384;DHT22;46458;50.966;7.002;2023-07-31T06:22:21;19.10;1.00
20384;DHT22;46458;50.966;7.002;2023-07-31T06:24:52;19.20;1.00
20384;DHT22;46458;50.966;7.002;2023-07-31T06:27:21;19.20;1.00
20384;DHT22;46458;50.966;7.002;2023-07-31T06:29:53;19.00;1.00
20384;DHT22;46458;50.966;7.002;2023-07-31T06:32:22;18.90;1.00
20384;DHT22;46458;50.966;7.002;2023-07-31T06:34:50;18.90;99.90
20384;DHT22;46458;50.966;7.002;2023-07-31T06:37:19;18.80;99.90
20384;DHT22;46458;50.966;7.002;2023-07-31T06:39:50;18.80;1.00
20384;DHT22;46458;50.966;7.002;2023-07-31T06:42:22;18.80;1.00
20384;DHT22;46458;50.966;7.002;2023-07-31T06:44:51;18.80;99.90
20384;DHT22;46458;50.966;7.002;2023-07-31T06:47:20;18.80;99.90
20384;DHT22;46458;50.966;7.002;2023-07-31T06:49:48;18.80;99.90
20384;DHT22;46458;50.966;7.002;2023-07-31T06:52:19;18.80;99.90
20384;DHT22;46458;50.966;7.002;2023-07-31T06:55:00;19.00;99.90
20384;DHT22;46458;50.966;7.002;2023-07-31T06:57:32;19.00;48.60
20384;DHT22;46458;50.966;7.002;2023-07-31T07:00:01;19.00;99.90
20384;DHT22;46458;50.966;7.002;2023-07-31T07:02:31;19.00;99.90
20384;DHT22;46458;50.966;7.002;2023-07-31T07:04:59;19.00;99.90
20384;DHT22;46458;50.966;7.002;2023-07-31T07:07:28;19.10;99.90
20384;DHT22;46458;50.966;7.002;2023-07-31T07:09:57;19.10;99.90
20384;DHT22;46458;50.966;7.002;2023-07-31T07:12:29;19.10;78.90
20384;DHT22;46458;50.966;7.002;2023-07-31T07:15:00;19.10;99.90
20384;DHT22;46458;50.966;7.002;2023-07-31T07:17:31;19.10;99.90
20384;DHT22;46458;50.966;7.002;2023-07-31T07:20:00;19.10;99.90
20384;DHT22;46458;50.966;7.002;2023-07-31T07:22:29;19.00;9.20
20384;DHT22;46458;50.966;7.002;2023-07-31T07:24:58;19.00;99.90
20384;DHT22;46458;50.966;7.002;2023-07-31T07:27:31;19.00;99.90
20384;DHT22;46458;50.966;7.002;2023-07-31T07:30:04;19.10;99.90
20384;DHT22;46458;50.966;7.002;2023-07-31T07:32:33;19.10;99.90
20384;DHT22;46458;50.966;7.002;2023-07-31T07:35:03;19.20;99.90
20384;DHT22;46458;50.966;7.002;2023-07-31T07:37:32;19.10;99.90
20384;DHT22;46458;50.966;7.002;2023-07-31T07:40:08;19.20;99.90
20384;DHT22;46458;50.966;7.002;2023-07-31T07:42:37;19.20;99.90
20384;DHT22;46458;50.966;7.002;2023-07-31T07:45:09;19.10;1.00
20384;DHT22;46458;50.966;7.002;2023-07-31T07:47:40;19.10;1.00
20384;DHT22;46458;50.966;7.002;2023-07-31T07:50:12;19.30;1.00
20384;DHT22;46458;50.966;7.002;2023-07-31T07:52:44;19.10;1.00
20384;DHT22;46458;50.966;7.002;2023-07-31T07:55:12;19.30;1.00
20384;DHT22;46458;50.966;7.002;2023-07-31T07:57:41;19.10;1.00
20384;DHT22;46458;50.966;7.002;2023-07-31T08:00:13;19.10;1.00
20384;DHT22;46458;50.966;7.002;2023-07-31T08:02:50;19.10;1.00
20384;DHT22;46458;50.966;7.002;2023-07-31T08:05:19;19.10;1.00
20384;DHT22;46458;50.966;7.002;2023-07-31T08:07:48;19.10;1.00
20384;DHT22;46458;50.966;7.002;2023-07-31T08:10:20;19.20;1.00
20384;DHT22;46458;50.966;7.002;2023-07-31T08:12:48;19.00;1.00
20384;DHT22;46458;50.966;7.002;2023-07-31T08:15:21;19.10;1.00
20384;DHT22;46458;50.966;7.002;2023-07-31T08:17:52;19.20;1.00
20384;DHT22;46458;50.966;7.002;2023-07-31T08:20:21;19.10;99.90
20384;DHT22;46458;50.966;7.002;2023-07-31T08:22:52;19.00;99.90
20384;DHT22;46458;50.966;7.002;2023-07-31T08:25:23;19.00;1.00
20384;DHT22;46458;50.966;7.002;2023-07-31T08:27:52;19.00;1.00
20384;DHT22;46458;50.966;7.002;2023-07-31T08:30:24;19.00;1.00
20384;DHT22;46458;50.966;7.002;2023-07-31T08:32:53;18.90;1.00
20384;DHT22;46458;50.966;7.002;2023-07-31T08:35:22;18.80;1.00
20384;DHT22;46458;50.966;7.002;2023-07-31T08:37:51;18.80;1.00
20384;DHT22;46458;50.966;7.002;2023-07-31T08:40:20;18.70;1.00
20384;DHT22;46458;50.966;7.002;2023-07-31T08:42:52;18.70;1.00
20384;DHT22;46458;50.966;7.002;2023-07-31T08:45:25;18.80;1.00
20384;DHT22;46458;50.966;7.002;2023-07-31T08:47:55;18.90;1.00
20384;DHT22;46458;50.966;7.002;2023-07-31T08:50:32;18.80;99.90
20384;DHT22;46458;50.966;7.002;2023-07-31T08:53:03;18.70;99.90
20384;DHT22;46458;50.966;7.002;2023-07-31T08:55:33;18.90;87.70
20384;DHT22;46458;50.966;7.002;2023-07-31T08:58:03;18.80;99.90
20384;DHT22;46458;50.966;7.002;2023-07-31T09:00:36;18.90;99.90
20384;DHT22;46458;50.966;7.002;2023-07-31T09:03:09;18.90;99.90
20384;DHT22;46458;50.966;7.002;2023-07-31T09:05:43;18.80;99.90
20384;DHT22;46458;50.966;7.002;2023-07-31T09:08:13;18.90;99.90
20384;DHT22;46458;50.966;7.002;2023-07-31T09:10:44;19.10;99.90
20384;DHT22;46458;50.966;7.002;2023-07-31T09:13:14;19.20;50.30
20384;DHT22;46458;50.966;7.002;2023-07-31T09:15:46;19.20;99.90
20384;DHT22;46458;50.966;7.002;2023-07-31T09:18:18;19.10;99.90
20384;DHT22;46458;50.966;7.002;2023-07-31T09:21:00;19.10;99.90
20384;DHT22;46458;50.966;7.002;2023-07-31T09:23:40;19.00;1.00
20384;DHT22;46458;50.966;7.002;2023-07-31T09:26:31;18.90;1.00
20384;DHT22;46458;50.966;7.002;2023-07-31T09:29:01;18.90;1.00
20384;DHT22;46458;50.966;7.002;2023-07-31T09:31:43;18.90;1.00
20384;DHT22;46458;50.966;7.002;2023-07-31T09:34:12;19.60;1.00
20384;DHT22;46458;50.966;7.002;2023-07-31T09:36:41;19.10;99.90
20384;DHT22;46458;50.966;7.002;2023-07-31T09:39:11;19.10;99.90
20384;DHT22;46458;50.966;7.002;2023-07-31T09:41:44;19.10;99.90
20384;DHT22;46458;50.966;7.002;2023-07-31T09:44:13;19.10;1.00
20384;DHT22;46458;50.966;7.002;2023-07-31T09:46:46;19.20;1.00
20384;DHT22;46458;50.966;7.002;2023-07-31T09:49:15;19.20;1.00
20384;DHT22;46458;50.966;7.002;2023-07-31T09:51:47;19.20;1.00
20384;DHT22;46458;50.966;7.002;2023-07-31T09:54:16;19.40;55.30
20384;DHT22;46458;50.966;7.002;2023-07-31T09:56:47;19.40;1.00
20384;DHT22;46458;50.966;7.002;2023-07-31T09:59:17;19.30;1.00
20384;DHT22;46458;50.966;7.002;2023-07-31T10:01:49;19.40;1.00
20384;DHT22;46458;50.966;7.002;2023-07-31T10:04:18;19.50;1.00
20384;DHT22;46458;50.966;7.002;2023-07-31T10:06:53;19.50;1.00
20384;DHT22;46458;50.966;7.002;2023-07-31T10:09:24;19.40;1.00
20384;DHT22;46458;50.966;7.002;2023-07-31T10:11:59;19.60;1.00
20384;DHT22;46458;50.966;7.002;2023-07-31T10:14:33;19.60;1.00
20384;DHT22;46458;50.966;7.002;2023-07-31T10:17:06;19.80;1.00
20384;DHT22;46458;50.966;7.002;2023-07-31T10:19:38;19.80;1.00
20384;DHT22;46458;50.966;7.002;2023-07-31T10:22:11;19.70;1.00
20384;DHT22;46458;50.966;7.002;2023-07-31T10:24:42;20.10;1.00
20384;DHT22;46458;50.966;7.002;2023-07-31T10:27:11;19.80;1.00
20384;DHT22;46458;50.966;7.002;2023-07-31T10:29:41;19.80;1.00
20384;DHT22;46458;50.966;7.002;2023-07-31T10:32:17;20.00;1.00
20384;DHT22;46458;50.966;7.002;2023-07-31T10:34:48;20.00;1.00
20384;DHT22;46458;50.966;7.002;2023-07-31T10:37:24;19.50;99.90
20384;DHT22;46458;50.966;7.002;2023-07-31T10:39:59;20.20;99.90
20384;DHT22;46458;50.966;7.002;2023-07-31T10:42:32;20.20;99.90
20384;DHT22;46458;50.966;7.002;2023-07-31T10:45:02;20.40;99.90
20384;DHT22;46458;50.966;7.002;2023-07-31T10:47:42;20.40;99.90
20384;DHT22;46458;50.966;7.002;2023-07-31T10:50:17;20.30;99.90
20384;DHT22;46458;50.966;7.002;2023-07-31T10:52:48;20.20;99.90
20384;DHT22;46458;50.966;7.002;2023-07-31T10:55:31;20.40;99.90
20384;DHT22;46458;50.966;7.002;2023-07-31T10:58:08;20.20;99.90
20384;DHT22;46458;50.966;7.002;2023-07-31T11:00:40;20.30;99.90
20384;DHT22;46458;50.966;7.002;2023-07-31T11:03:16;20.40;99.90
20384;DHT22;46458;50.966;7.002;2023-07-31T11:05:51;20.40;99.90
20384;DHT22;46458;50.966;7.002;2023-07-31T11:08:23;20.30;99.90
20384;DHT22;46458;50.966;7.002;2023-07-31T11:11:05;20.40;99.90
20384;DHT22;46458;50.966;7.002;2023-07-31T11:13:40;20.40;99.90
20384;DHT22;46458;50.966;7.002;2023-07-31T11:16:14;20.30;99.90
20384;DHT22;46458;50.966;7.002;2023-07-31T11:18:47;20.10;1.00
20384;DHT22;46458;50.966;7.002;2023-07-31T11:21:19;20.00;1.00
20384;DHT22;46458;50.966;7.002;2023-07-31T11:23:48;20.00;1.00
20384;DHT22;46458;50.966;7.002;2023-07-31T11:26:19;20.00;1.00
20384;DHT22;46458;50.966;7.002;2023-07-31T11:28:48;20.20;1.00
20384;DHT22;46458;50.966;7.002;2023-07-31T11:31:18;20.30;1.00
20384;DHT22;46458;50.966;7.002;2023-07-31T11:34:04;20.50;1.00
20384;DHT22;46458;50.966;7.002;2023-07-31T11:36:33;20.70;1.00
20384;DHT22;46458;50.966;7.002;2023-07-31T11:39:05;20.60;1.00
20384;DHT22;46458;50.966;7.002;2023-07-31T11:41:34;20.80;99.90
20384;DHT22;46458;50.966;7.002;2023-07-31T11:44:03;20.70;99.90
20384;DHT22;46458;50.966;7.002;2023-07-31T11:46:35;20.70;99.90
20384;DHT22;46458;50.966;7.002;2023-07-31T11:49:06;20.90;99.90
20384;DHT22;46458;50.966;7.002;2023-07-31T11:51:36;21.00;99.90
20384;DHT22;46458;50.966;7.002;2023-07-31T11:54:05;21.10;99.90
20384;DHT22;46458;50.966;7.002;2023-07-31T11:56:33;21.20;99.90
20384;DHT22;46458;50.966;7.002;2023-07-31T11:59:05;21.30;99.90
20384;DHT22;46458;50.966;7.002;2023-07-31T12:01:34;21.20;99.90
20384;DHT22;46458;50.966;7.002;2023-07-31T12:04:06;21.30;99.90
20384;DHT22;46458;50.966;7.002;2023-07-31T12:06:35;21.10;99.90
20384;DHT22;46458;50.966;7.002;2023-07-31T12:09:05;21.00;99.90
20384;DHT22;46458;50.966;7.002;2023-07-31T12:11:42;20.90;99.90
20384;DHT22;46458;50.966;7.002;2023-07-31T12:14:20;20.90;99.90
20384;DHT22;46458;50.966;7.002;2023-07-31T12:16:53;20.90;99.90
20384;DHT22;46458;50.966;7.002;2023-07-31T12:19:26;20.90;99.90
20384;DHT22;46458;50.966;7.002;2023-07-31T12:21:56;20.90;99.90
20384;DHT22;46458;50.966;7.002;2023-07-31T12:24:26;20.90;99.90
20384;DHT22;46458;50.966;7.002;2023-07-31T12:26:56;20.80;99.90
20384;DHT22;46458;50.966;7.002;2023-07-31T12:29:33;20.80;99.90
20384;DHT22;46458;50.966;7.002;2023-07-31T12:32:03;20.90;99.90
20384;DHT22;46458;50.966;7.002;2023-07-31T12:34:42;20.80;99.90
20384;DHT22;46458;50.966;7.002;2023-07-31T12:37:14;20.90;99.90
20384;DHT22;46458;50.966;7.002;2023-07-31T12:39:43;20.80;99.90
20384;DHT22;46458;50.966;7.002;2023-07-31T12:42:12;21.30;99.90
20384;DHT22;46458;50.966;7.002;2023-07-31T12:44:40;20.40;99.90
20384;DHT22;46458;50.966;7.002;2023-07-31T12:47:09;20.90;99.90
20384;DHT22;46458;50.966;7.002;2023-07-31T12:49:40;20.90;99.90
20384;DHT22;46458;50.966;7.002;2023-07-31T12:52:09;20.90;99.90
20384;DHT22;46458;50.966;7.002;2023-07-31T12:54:38;20.90;99.90
20384;DHT22;46458;50.966;7.002;2023-07-31T12:57:08;20.90;99.90
20384;DHT22;46458;50.966;7.002;2023-07-31T12:59:37;20.90;99.90
20384;DHT22;46458;50.966;7.002;2023-07-31T13:02:10;20.90;99.90
20384;DHT22;46458;50.966;7.002;2023-07-31T13:04:42;21.10;99.90
20384;DHT22;46458;50.966;7.002;2023-07-31T13:07:11;20.90;99.90
20384;DHT22;46458;50.966;7.002;2023-07-31T13:09:40;20.90;99.90
20384;DHT22;46458;50.966;7.002;2023-07-31T13:12:09;21.10;99.90
20384;DHT22;46458;50.966;7.002;2023-07-31T13:14:37;21.00;99.90
20384;DHT22;46458;50.966;7.002;2023-07-31T13:17:09;21.10;99.90
20384;DHT22;46458;50.966;7.002;2023-07-31T13:19:45;21.10;99.90
20384;DHT22;46458;50.966;7.002;2023-07-31T13:22:14;21.20;99.90
20384;DHT22;46458;50.966;7.002;2023-07-31T13:24:43;21.10;99.90
20384;DHT22;46458;50.966;7.002;2023-07-31T13:27:12;21.40;99.90
20384;DHT22;46458;50.966;7.002;2023-07-31T13:29:42;21.00;99.90
20384;DHT22;46458;50.966;7.002;2023-07-31T13:32:11;21.00;99.90
20384;DHT22;46458;50.966;7.002;2023-07-31T13:34:46;21.10;99.90
20384;DHT22;46458;50.966;7.002;2023-07-31T13:37:16;21.20;99.90
20384;DHT22;46458;50.966;7.002;2023-07-31T13:39:44;21.20;99.90
20384;DHT22;46458;50.966;7.002;2023-07-31T13:42:13;21.30;99.90
20384;DHT22;46458;50.966;7.002;2023-07-31T13:44:42;21.30;99.90
20384;DHT22;46458;50.966;7.002;2023-07-31T13:47:11;21.30;99.90
20384;DHT22;46458;50.966;7.002;2023-07-31T13:49:45;21.40;99.90
20384;DHT22;46458;50.966;7.002;2023-07-31T13:52:15;21.40;99.90
20384;DHT22;46458;50.966;7.002;2023-07-31T13:54:44;21.50;99.90
20384;DHT22;46458;50.966;7.002;2023-07-31T13:57:12;21.60;99.90
20384;DHT22;46458;50.966;7.002;2023-07-31T13:59:41;21.80;99.90
20384;DHT22;46458;50.966;7.002;2023-07-31T14:02:12;21.80;99.90
20384;DHT22;46458;50.966;7.002;2023-07-31T14:04:41;22.10;99.90
20384;DHT22;46458;50.966;7.002;2023-07-31T14:07:12;22.40;99.90
20384;DHT22;46458;50.966;7.002;2023-07-31T14:09:41;22.30;99.90
20384;DHT22;46458;50.966;7.002;2023-07-31T14:12:10;22.40;99.90
20384;DHT22;46458;50.966;7.002;2023-07-31T14:14:38;22.20;99.90
20384;DHT22;46458;50.966;7.002;2023-07-31T14:17:07;22.20;99.90
20384;DHT22;46458;50.966;7.002;2023-07-31T14:19:39;22.20;99.90
20384;DHT22;46458;50.966;7.002;2023-07-31T14:22:08;22.50;99.90
20384;DHT22;46458;50.966;7.002;2023-07-31T14:24:39;22.00;99.90
20384;DHT22;46458;50.966;7.002;2023-07-31T14:27:08;21.90;99.90
20384;DHT22;46458;50.966;7.002;2023-07-31T14:29:37;21.80;99.90
20384;DHT22;46458;50.966;7.002;2023-07-31T14:32:07;21.60;99.90
20384;DHT22;46458;50.966;7.002;2023-07-31T14:34:35;21.50;99.90
20384;DHT22;46458;50.966;7.002;2023-07-31T14:37:13;21.50;99.90
20384;DHT22;46458;50.966;7.002;2023-07-31T14:39:54;21.50;99.90
20384;DHT22;46458;50.966;7.002;2023-07-31T14:42:23;21.30;99.90
20384;DHT22;46458;50.966;7.002;2023-07-31T14:44:57;21.20;99.90
20384;DHT22;46458;50.966;7.002;2023-07-31T14:47:26;21.30;99.90
20384;DHT22;46458;50.966;7.002;2023-07-31T14:49:56;21.40;99.90
20384;DHT22;46458;50.966;7.002;2023-07-31T14:52:25;21.40;99.90
20384;DHT22;46458;50.966;7.002;2023-07-31T14:54:57;21.40;99.90
20384;DHT22;46458;50.966;7.002;2023-07-31T14:57:26;21.50;99.90
20384;DHT22;46458;50.966;7.002;2023-07-31T15:00:04;21.50;99.90
20384;DHT22;46458;50.966;7.002;2023-07-31T15:02:34;21.40;99.90
20384;DHT22;46458;50.966;7.002;2023-07-31T15:05:04;21.40;99.90
20384;DHT22;46458;50.966;7.002;2023-07-31T15:07:36;21.30;99.90
20384;DHT22;46458;50.966;7.002;2023-07-31T15:10:08;21.30;99.90
20384;DHT22;46458;50.966;7.002;2023-07-31T15:12:37;21.30;99.90
20384;DHT22;46458;50.966;7.002;2023-07-31T15:15:07;21.40;99.90
20384;DHT22;46458;50.966;7.002;2023-07-31T15:17:36;21.30;99.90
20384;DHT22;46458;50.966;7.002;2023-07-31T15:20:06;21.20;99.90
20384;DHT22;46458;50.966;7.002;2023-07-31T15:22:38;21.20;99.90
20384;DHT22;46458;50.966;7.002;2023-07-31T15:25:10;21.30;99.90
20384;DHT22;46458;50.966;7.002;2023-07-31T15:27:44;21.40;99.90
20384;DHT22;46458;50.966;7.002;2023-07-31T15:30:19;21.60;99.90
20384;DHT22;46458;50.966;7.002;2023-07-31T15:32:48;21.30;99.90
20384;DHT22;46458;50.966;7.002;2023-07-31T15:35:17;21.30;99.90
20384;DHT22;46458;50.966;7.002;2023-07-31T15:37:46;21.30;99.90
20384;DHT22;46458;50.966;7.002;2023-07-31T15:40:17;21.10;99.90
20384;DHT22;46458;50.966;7.002;2023-07-31T15:42:46;21.20;99.90
20384;DHT22;46458;50.966;7.002;2023-07-31T15:45:17;21.30;99.90
20384;DHT22;46458;50.966;7.002;2023-07-31T15:47:46;21.30;99.90
20384;DHT22;46458;50.966;7.002;2023-07-31T15:50:14;21.40;99.90
20384;DHT22;46458;50.966;7.002;2023-07-31T15:52:45;21.30;99.90
20384;DHT22;46458;50.966;7.002;2023-07-31T15:55:19;21.30;99.90
20384;DHT22;46458;50.966;7.002;2023-07-31T15:57:50;21.20;99.90
20384;DHT22;46458;50.966;7.002;2023-07-31T16:00:19;21.30;99.90